Time,TemperatureF,DewpointF,PressureIn,WindDirection,WindDirectionDegrees,WindSpeedMPH,WindSpeedGustMPH,Humidity,HourlyPrecipIn,Conditions,Clouds,dailyrainin,SoftwareType,DateUTC
2015-06-02 00:18:00,68.9,49.0,29.95,NNE,24,0.0,-999.0,50,-99.99,,,0.00,weatherlink.com 1.10,2015-06-01 21:18:00,
2015-06-02 00:33:00,68.8,49.0,29.94,NNE,25,0.0,-999.0,50,-99.99,,,0.00,weatherlink.com 1.10,2015-06-01 21:33:00,
2015-06-02 00:48:00,68.7,49.0,29.94,NE,42,2.0,-999.0,50,-99.99,,,0.00,weatherlink.com 1.10,2015-06-01 21:48:00,
2015-06-02 01:03:00,68.4,49.0,29.94,NE,42,0.0,-999.0,51,-99.99,,,0.00,weatherlink.com 1.10,2015-06-01 22:03:00,
2015-06-02 01:18:00,68.3,49.0,29.94,NE,42,0.0,-999.0,51,-99.99,,,0.00,weatherlink.com 1.10,2015-06-01 22:18:00,
2015-06-02 01:33:00,68.2,49.0,29.94,NE,43,0.0,-999.0,51,-99.99,,,0.00,weatherlink.com 1.10,2015-06-01 22:33:00,
2015-06-02 01:48:00,68.2,49.0,29.94,NE,46,1.0,-999.0,51,-99.99,,,0.00,weatherlink.com 1.10,2015-06-01 22:48:00,
2015-06-02 02:03:00,68.2,49.0,29.93,NE,35,0.0,-999.0,51,-99.99,,,0.00,weatherlink.com 1.10,2015-06-01 23:03:00,
2015-06-02 02:18:00,68.2,49.0,29.93,NE,42,0.0,-999.0,51,-99.99,,,0.00,weatherlink.com 1.10,2015-06-01 23:18:00,
2015-06-02 02:48:00,68.1,50.0,29.93,NE,41,4.0,-999.0,52,-99.99,,,0.00,weatherlink.com 1.10,2015-06-01 23:48:00,
2015-06-02 03:03:00,68.0,50.0,29.93,NE,48,3.0,-999.0,52,-99.99,,,0.00,weatherlink.com 1.10,2015-06-02 00:03:00,
2015-06-02 03:18:00,67.9,49.0,29.92,NE,43,1.0,-999.0,52,-99.99,,,0.00,weatherlink.com 1.10,2015-06-02 00:18:00,
2015-06-02 03:33:00,67.8,49.0,29.92,NNE,31,0.0,-999.0,52,-99.99,,,0.00,weatherlink.com 1.10,2015-06-02 00:33:00,
2015-06-02 03:48:00,67.6,50.0,29.92,North,9,1.0,-999.0,53,-99.99,,,0.00,weatherlink.com 1.10,2015-06-02 00:48:00,
2015-06-02 04:03:00,67.7,49.0,29.92,NNE,13,1.0,-999.0,52,-99.99,,,0.00,weatherlink.com 1.10,2015-06-02 01:03:00,
2015-06-02 04:18:00,67.8,49.0,29.92,NE,39,0.0,-999.0,52,-99.99,,,0.00,weatherlink.com 1.10,2015-06-02 01:18:00,
2015-06-02 04:33:00,67.9,49.0,29.92,NNE,15,4.0,-999.0,52,-99.99,,,0.00,weatherlink.com 1.10,2015-06-02 01:33:00,
2015-06-02 04:49:00,67.8,50.0,29.92,NNE,26,4.0,-999.0,53,-99.99,,,0.00,weatherlink.com 1.10,2015-06-02 01:49:00,
2015-06-02 05:04:00,67.6,50.0,29.91,ENE,76,6.0,-999.0,53,-99.99,,,0.00,weatherlink.com 1.10,2015-06-02 02:04:00,
2015-06-02 05:19:00,67.4,50.0,29.91,NNE,30,0.0,-999.0,54,-99.99,,,0.00,weatherlink.com 1.10,2015-06-02 02:19:00,
2015-06-02 05:34:00,67.0,50.0,29.91,ENE,66,0.0,-999.0,55,-99.99,,,0.00,weatherlink.com 1.10,2015-06-02 02:34:00,
2015-06-02 05:49:00,66.7,50.0,29.91,NE,38,5.0,-999.0,56,-99.99,,,0.00,weatherlink.com 1.10,2015-06-02 02:49:00,
2015-06-02 06:04:00,66.6,51.0,29.91,NE,34,7.0,-999.0,58,-99.99,,,0.00,weatherlink.com 1.10,2015-06-02 03:04:00,
2015-06-02 06:19:00,66.4,51.0,29.91,NE,51,0.0,-999.0,58,-99.99,,,0.00,weatherlink.com 1.10,2015-06-02 03:19:00,
2015-06-02 06:34:00,66.3,51.0,29.91,ENE,61,7.0,-999.0,59,-99.99,,,0.00,weatherlink.com 1.10,2015-06-02 03:34:00,
2015-06-02 06:49:00,66.6,52.0,29.91,NE,46,2.0,-999.0,60,-99.99,,,0.00,weatherlink.com 1.10,2015-06-02 03:49:00,
2015-06-02 07:04:00,66.9,53.0,29.91,ENE,59,0.0,-999.0,61,-99.99,,,0.00,weatherlink.com 1.10,2015-06-02 04:04:00,
2015-06-02 07:19:00,67.6,54.0,29.92,ENE,61,6.0,-999.0,61,-99.99,,,0.00,weatherlink.com 1.10,2015-06-02 04:19:00,
2015-06-02 07:34:00,67.9,54.0,29.92,North,10,4.0,-999.0,61,-99.99,,,0.00,weatherlink.com 1.10,2015-06-02 04:34:00,
2015-06-02 07:49:00,68.9,54.0,29.92,NE,49,0.0,-999.0,60,-99.99,,,0.00,weatherlink.com 1.10,2015-06-02 04:49:00,
2015-06-02 08:04:00,69.8,54.0,29.92,NE,36,0.0,-999.0,58,-99.99,,,0.00,weatherlink.com 1.10,2015-06-02 05:04:00,
2015-06-02 08:19:00,70.6,54.0,29.92,NE,55,9.0,-999.0,56,-99.99,,,0.00,weatherlink.com 1.10,2015-06-02 05:19:00,
2015-06-02 08:34:00,71.4,53.0,29.93,NE,38,3.0,-999.0,53,-99.99,,,0.00,weatherlink.com 1.10,2015-06-02 05:34:00,
2015-06-02 08:49:00,72.0,53.0,29.93,NE,34,4.0,-999.0,51,-99.99,,,0.00,weatherlink.com 1.10,2015-06-02 05:49:00,
2015-06-02 09:04:00,72.5,50.0,29.93,NE,34,6.0,-999.0,46,-99.99,,,0.00,weatherlink.com 1.10,2015-06-02 06:04:00,
2015-06-02 09:19:00,73.0,50.0,29.93,NNE,21,1.0,-999.0,45,-99.99,,,0.00,weatherlink.com 1.10,2015-06-02 06:19:00,
2015-06-02 09:34:00,73.8,50.0,29.93,North,355,2.0,-999.0,44,-99.99,,,0.00,weatherlink.com 1.10,2015-06-02 06:34:00,
2015-06-02 09:49:00,74.3,49.0,29.93,North,5,4.0,-999.0,41,-99.99,,,0.00,weatherlink.com 1.10,2015-06-02 06:49:00,
2015-06-02 10:04:00,74.2,50.0,29.93,NNW,333,6.0,-999.0,42,-99.99,,,0.00,weatherlink.com 1.10,2015-06-02 07:04:00,
2015-06-02 10:19:00,74.6,49.0,29.93,North,355,5.0,-999.0,40,-99.99,,,0.00,weatherlink.com 1.10,2015-06-02 07:19:00,
2015-06-02 10:34:00,74.8,48.0,29.94,NNE,30,5.0,-999.0,39,-99.99,,,0.00,weatherlink.com 1.10,2015-06-02 07:34:00,
2015-06-02 10:49:00,75.3,49.0,29.94,North,349,4.0,-999.0,40,-99.99,,,0.00,weatherlink.com 1.10,2015-06-02 07:49:00,
2015-06-02 11:05:00,75.5,49.0,29.93,NNW,347,9.0,-999.0,39,-99.99,,,0.00,weatherlink.com 1.10,2015-06-02 08:05:00,